Time;durP1;ratioP1;P1;durP2;ratioP2;P2;SDS_P1;SDS_P2;PMS_P1;PMS_P2;Temp;Humidity;BMP_temperature;BMP_pressure;BME280_temperature;BME280_humidity;BME280_pressure;Samples;Min_cycle;Max_cycle;Signal;HPM_P1;HPM_P2
2023/04/27 00:00:37;;;;;;;11.80;5.57;;;;;;;3.28;95.79;102093.44;4913743;29;20638;-88
2023/04/27 00:03:06;;;;;;;15.00;5.60;;;;;;;3.21;95.89;102089.00;4912968;29;20059;-89
2023/04/27 00:05:35;;;;;;;9.20;5.22;;;;;;;3.15;96.52;102090.56;4914859;29;20674;-88
2023/04/27 00:08:01;;;;;;;10.88;5.07;;;;;;;3.14;96.17;102095.63;4897552;29;20040;-88
2023/04/27 00:10:27;;;;;;;10.10;4.57;;;;;;;3.04;96.77;102078.28;4913025;29;20031;-88
2023/04/27 00:12:52;;;;;;;9.18;4.45;;;;;;;3.04;96.65;102094.53;4895663;29;20031;-88
2023/04/27 00:15:18;;;;;;;9.13;4.72;;;;;;;3.06;96.89;102087.78;4896202;29;20040;-89
2023/04/27 00:17:43;;;;;;;10.43;4.93;;;;;;;3.03;97.13;102089.38;4896308;29;20019;-88
2023/04/27 00:20:10;;;;;;;9.15;4.40;;;;;;;2.99;97.33;102095.25;4914041;29;20036;-89
2023/04/27 00:22:37;;;;;;;12.20;4.38;;;;;;;2.87;97.57;102082.94;4899289;29;20028;-88
2023/04/27 00:25:03;;;;;;;10.48;4.38;;;;;;;2.96;97.85;102100.25;4912696;29;20039;-88
2023/04/27 00:27:29;;;;;;;11.13;4.43;;;;;;;2.81;97.73;102082.78;4913536;29;20511;-89
2023/04/27 00:29:55;;;;;;;9.70;4.45;;;;;;;2.81;98.08;102085.34;4912992;29;20032;-89
2023/04/27 00:32:20;;;;;;;9.35;4.57;;;;;;;2.82;98.54;102086.22;4896569;29;20213;-88
2023/04/27 00:34:46;;;;;;;12.70;4.72;;;;;;;2.84;98.14;102092.25;4913307;29;20032;-88
2023/04/27 00:37:11;;;;;;;10.02;4.70;;;;;;;2.74;98.40;102078.31;4914306;29;20036;-88
2023/04/27 00:39:37;;;;;;;10.15;4.40;;;;;;;2.60;98.48;102062.56;4914291;29;20039;-88
2023/04/27 00:42:02;;;;;;;9.73;4.90;;;;;;;2.60;98.24;102069.38;4912112;29;20027;-88
2023/04/27 00:44:27;;;;;;;11.02;4.88;;;;;;;2.65;98.76;102080.63;4910740;29;20039;-88
2023/04/27 00:46:53;;;;;;;10.45;4.45;;;;;;;2.69;99.36;102091.00;4914839;29;20485;-88
2023/04/27 00:49:19;;;;;;;10.23;4.47;;;;;;;2.66;99.42;102092.63;4912264;29;20031;-88
2023/04/27 00:51:46;;;;;;;11.18;4.68;;;;;;;2.63;99.84;102090.81;4895563;29;21271;-88
2023/04/27 00:54:14;;;;;;;10.35;4.88;;;;;;;2.65;99.56;102104.53;4912908;29;20032;-88
2023/04/27 00:56:40;;;;;;;9.02;4.63;;;;;;;2.47;99.66;102073.28;4898608;29;20027;-88
2023/04/27 00:59:05;;;;;;;11.05;5.32;;;;;;;2.60;99.73;102094.97;4912921;29;20484;-89
2023/04/27 01:01:31;;;;;;;8.60;4.18;;;;;;;2.57;99.83;102092.34;4913227;29;20094;-88
2023/04/27 01:03:56;;;;;;;9.63;5.00;;;;;;;2.56;100.00;102094.03;4911736;29;20052;-88
2023/04/27 01:06:22;;;;;;;10.68;5.00;;;;;;;2.46;100.00;102079.22;4892514;29;20032;-89
2023/04/27 01:08:47;;;;;;;12.93;4.95;;;;;;;2.43;100.00;102088.50;4911893;29;20031;-88
2023/04/27 01:11:13;;;;;;;12.15;5.00;;;;;;;2.41;100.00;102083.34;4911975;29;20035;-88
2023/04/27 01:13:38;;;;;;;9.73;4.60;;;;;;;2.43;100.00;102096.19;4911739;29;20047;-88
2023/04/27 01:16:04;;;;;;;10.85;4.97;;;;;;;2.35;100.00;102086.59;4911531;29;20032;-88
2023/04/27 01:18:29;;;;;;;11.05;4.50;;;;;;;2.27;100.00;102072.69;4898574;29;20076;-89
2023/04/27 01:20:55;;;;;;;11.52;4.78;;;;;;;2.31;100.00;102079.66;4896278;29;20047;-88
2023/04/27 01:23:21;;;;;;;12.35;5.20;;;;;;;2.24;100.00;102075.19;4896168;29;20020;-88
2023/04/27 01:25:46;;;;;;;10.70;4.63;;;;;;;2.20;100.00;102077.59;4911185;29;20516;-88
2023/04/27 01:28:12;;;;;;;10.80;4.53;;;;;;;2.18;100.00;102080.13;4912954;29;20037;-88
2023/04/27 01:30:37;;;;;;;8.50;4.68;;;;;;;2.20;100.00;102085.25;4911609;29;20051;-88
2023/04/27 01:33:03;;;;;;;10.00;4.85;;;;;;;2.14;100.00;102079.97;4912270;29;20031;-88
2023/04/27 01:35:28;;;;;;;13.55;5.13;;;;;;;2.17;100.00;102087.75;4909136;29;20069;-88
2023/04/27 01:37:55;;;;;;;10.05;4.90;;;;;;;2.20;100.00;102103.16;4911638;29;20036;-88
2023/04/27 01:40:20;;;;;;;13.27;5.32;;;;;;;2.03;100.00;102079.66;4896157;29;20062;-88
2023/04/27 01:42:46;;;;;;;10.13;4.68;;;;;;;2.15;100.00;102092.81;4912265;29;20444;-88
2023/04/27 01:45:11;;;;;;;9.52;4.63;;;;;;;2.11;100.00;102092.66;4913550;29;20375;-88
2023/04/27 01:47:37;;;;;;;12.80;5.40;;;;;;;2.05;100.00;102085.66;4910627;29;20401;-88
2023/04/27 01:50:02;;;;;;;11.15;5.00;;;;;;;1.96;100.00;102068.38;4895867;29;20056;-88
2023/04/27 01:52:31;;;;;;;10.90;4.63;;;;;;;2.04;100.00;102083.06;4910996;29;20032;-88
2023/04/27 01:54:56;;;;;;;12.90;4.90;;;;;;;1.93;100.00;102075.06;4911568;29;20047;-89
2023/04/27 01:57:22;;;;;;;10.90;4.78;;;;;;;1.85;100.00;102069.69;4913443;29;20024;-88
2023/04/27 01:59:47;;;;;;;10.52;4.93;;;;;;;1.96;100.00;102088.81;4896493;29;20031;-88
2023/04/27 02:02:13;;;;;;;10.63;4.68;;;;;;;1.91;100.00;102087.78;4894476;29;20035;-87
2023/04/27 02:04:38;;;;;;;11.98;5.25;;;;;;;1.84;100.00;102082.44;4911796;29;20661;-88
2023/04/27 02:07:03;;;;;;;12.75;5.18;;;;;;;1.89;100.00;102086.88;4892949;29;20043;-89
2023/04/27 02:09:29;;;;;;;10.43;4.53;;;;;;;1.83;100.00;102081.59;4894667;29;20552;-88
2023/04/27 02:11:54;;;;;;;9.52;4.90;;;;;;;1.86;100.00;102083.34;4894880;29;20394;-88
2023/04/27 02:14:20;;;;;;;9.77;4.80;;;;;;;1.76;100.00;102066.00;4893091;29;20063;-89
2023/04/27 02:16:45;;;;;;;11.32;5.32;;;;;;;1.73;100.00;102071.88;4909904;29;20039;-88
2023/04/27 02:19:10;;;;;;;12.30;5.20;;;;;;;1.79;100.00;102072.06;4910604;29;20032;-88
2023/04/27 02:21:38;;;;;;;11.70;4.88;;;;;;;1.67;100.00;102051.25;4912547;29;20062;-88
2023/04/27 02:24:04;;;;;;;11.02;4.90;;;;;;;1.61;100.00;102057.84;4910977;29;20774;-88
2023/04/27 02:26:29;;;;;;;11.75;5.03;;;;;;;1.70;100.00;102068.38;4909537;29;20110;-88
2023/04/27 02:28:58;;;;;;;9.50;4.43;;;;;;;1.68;100.00;102070.00;4912504;29;20090;-88
2023/04/27 02:31:23;;;;;;;12.73;5.07;;;;;;;1.67;100.00;102084.47;4908998;29;20118;-88
2023/04/27 02:33:49;;;;;;;11.27;4.85;;;;;;;1.64;100.00;102068.16;4896137;29;20488;-88
2023/04/27 02:36:14;;;;;;;10.27;4.45;;;;;;;1.64;100.00;102063.06;4893273;29;20036;-88
2023/04/27 02:38:40;;;;;;;10.40;4.50;;;;;;;1.60;100.00;102056.97;4912407;29;20489;-88
2023/04/27 02:41:05;;;;;;;10.68;4.70;;;;;;;1.56;100.00;102058.56;4896262;29;20040;-87
2023/04/27 02:43:31;;;;;;;8.98;4.47;;;;;;;1.55;100.00;102064.50;4910544;29;20036;-88
2023/04/27 02:46:00;;;;;;;11.32;4.72;;;;;;;1.49;100.00;102055.75;4894311;29;20032;-88
2023/04/27 02:48:26;;;;;;;10.07;4.38;;;;;;;1.51;100.00;102064.31;4913711;29;20036;-88
2023/04/27 02:50:51;;;;;;;10.43;4.57;;;;;;;1.35;100.00;102041.66;4913192;29;20525;-88
2023/04/27 02:53:17;;;;;;;11.80;4.57;;;;;;;1.32;100.00;102032.22;4911710;29;20489;-88
2023/04/27 02:55:47;;;;;;;12.32;5.10;;;;;;;1.47;100.00;102065.06;4892924;29;20050;-88
2023/04/27 02:58:12;;;;;;;14.07;5.13;;;;;;;1.38;100.00;102057.06;4911321;29;20509;-88
2023/04/27 03:00:39;;;;;;;10.45;4.90;;;;;;;1.38;100.00;102057.06;4893605;29;20116;-88
2023/04/27 03:03:05;;;;;;;14.45;5.05;;;;;;;1.38;100.00;102060.50;4892856;29;20131;-88
2023/04/27 03:05:31;;;;;;;12.18;5.18;;;;;;;1.41;100.00;102064.84;4894485;29;20155;-88
2023/04/27 03:07:56;;;;;;;11.07;4.72;;;;;;;1.36;100.00;102057.06;4909839;29;20115;-89
2023/04/27 03:10:22;;;;;;;11.50;4.88;;;;;;;1.35;100.00;102054.44;4910354;29;20104;-88
2023/04/27 03:12:47;;;;;;;11.50;5.05;;;;;;;1.27;100.00;102041.41;4910945;29;20127;-88
2023/04/27 03:15:12;;;;;;;11.95;5.38;;;;;;;1.34;100.00;102058.69;4893121;29;20028;-88
2023/04/27 03:17:38;;;;;;;11.35;4.90;;;;;;;1.30;100.00;102055.97;4893756;29;20130;-88
2023/04/27 03:20:08;;;;;;;11.10;5.20;;;;;;;1.21;100.00;102043.75;4910568;29;20028;-88
2023/04/27 03:22:33;;;;;;;10.15;4.80;;;;;;;1.30;100.00;102066.19;4910214;29;20043;-88
2023/04/27 03:24:58;;;;;;;10.43;4.95;;;;;;;1.29;100.00;102067.00;4909336;29;20043;-88
2023/04/27 03:27:24;;;;;;;12.77;5.00;;;;;;;1.22;100.00;102053.16;4910244;29;20028;-88
2023/04/27 03:29:52;;;;;;;12.18;5.25;;;;;;;1.23;100.00;102066.81;4894447;29;20552;-89
2023/04/27 03:32:18;;;;;;;14.30;5.00;;;;;;;1.24;100.00;102065.97;4911321;29;20044;-89
2023/04/27 03:34:43;;;;;;;12.43;5.07;;;;;;;1.15;100.00;102066.53;4893714;29;20096;-89
2023/04/27 03:37:09;;;;;;;10.70;4.95;;;;;;;1.14;100.00;102062.25;4894950;29;20478;-88
2023/04/27 03:39:34;;;;;;;11.98;5.15;;;;;;;1.09;100.00;102061.22;4910532;29;20536;-88
2023/04/27 03:42:01;;;;;;;12.23;4.93;;;;;;;1.14;100.00;102086.09;4895052;29;20401;-88
2023/04/27 03:44:26;;;;;;;12.32;5.25;;;;;;;1.03;100.00;102071.19;4909466;29;20091;-88
2023/04/27 03:46:52;;;;;;;13.18;5.18;;;;;;;1.10;100.00;102084.22;4912246;29;20442;-88
2023/04/27 03:49:17;;;;;;;11.50;5.30;;;;;;;1.11;100.00;102085.97;4910805;29;20432;-89
2023/04/27 03:51:43;;;;;;;14.82;5.38;;;;;;;1.02;100.00;102077.16;4910218;29;20115;-89
2023/04/27 03:54:11;;;;;;;13.50;4.93;;;;;;;1.07;100.00;102080.72;4910321;29;20031;-89
2023/04/27 03:56:37;;;;;;;16.45;5.25;;;;;;;1.04;100.00;102072.94;4908804;29;20063;-88
2023/04/27 03:59:03;;;;;;;11.95;5.65;;;;;;;1.04;100.00;102081.47;4909875;29;20110;-88
2023/04/27 04:01:29;;;;;;;11.63;5.22;;;;;;;1.00;100.00;102076.22;4894050;29;20032;-88
2023/04/27 04:03:55;;;;;;;15.38;6.05;;;;;;;0.86;100.00;102051.91;4907624;29;20058;-88
2023/04/27 04:06:23;;;;;;;12.32;5.15;;;;;;;1.00;100.00;102084.75;4905151;29;20032;-89
2023/04/27 04:08:48;;;;;;;14.02;5.47;;;;;;;1.05;100.00;102087.44;4889022;29;20036;-89
2023/04/27 04:11:14;;;;;;;10.27;4.88;;;;;;;1.01;100.00;102083.06;4891901;29;20043;-88
2023/04/27 04:13:40;;;;;;;12.68;5.38;;;;;;;1.00;100.00;102089.84;4890571;29;20102;-88
2023/04/27 04:16:07;;;;;;;11.07;4.88;;;;;;;0.93;100.00;102074.25;4908768;29;20027;-89
2023/04/27 04:18:33;;;;;;;13.63;5.47;;;;;;;1.04;100.00;102093.38;4907886;29;20078;-88
2023/04/27 04:20:59;;;;;;;12.77;5.50;;;;;;;1.00;100.00;102092.41;4892049;29;20035;-88
2023/04/27 04:23:24;;;;;;;14.20;5.20;;;;;;;1.02;100.00;102089.91;4904891;29;20107;-89
2023/04/27 04:25:51;;;;;;;11.98;5.15;;;;;;;1.02;100.00;102097.56;4892045;29;20121;-89
2023/04/27 04:28:16;;;;;;;14.75;5.30;;;;;;;0.95;100.00;102083.72;4907113;29;20107;-89
2023/04/27 04:30:42;;;;;;;12.57;5.40;;;;;;;1.03;100.00;102096.72;4905209;29;20039;-88
2023/04/27 04:33:08;;;;;;;13.93;5.47;;;;;;;1.01;100.00;102094.16;4897003;29;21019;-88
2023/04/27 04:35:37;;;;;;;13.93;5.45;;;;;;;1.08;100.00;102108.00;4894126;29;20648;-87
2023/04/27 04:38:02;;;;;;;12.95;5.28;;;;;;;0.99;100.00;102094.91;4893177;29;20051;-89
2023/04/27 04:40:27;;;;;;;14.02;5.65;;;;;;;1.10;100.00;102111.44;4890226;29;20027;-88
2023/04/27 04:42:53;;;;;;;14.60;5.75;;;;;;;1.12;100.00;102114.94;4908699;29;20031;-88
2023/04/27 04:45:18;;;;;;;14.77;6.15;;;;;;;1.05;100.00;102088.31;4911802;29;20107;-88
2023/04/27 04:47:44;;;;;;;15.15;6.25;;;;;;;1.21;100.00;102122.94;4896650;29;20397;-88
2023/04/27 04:50:10;;;;;;;14.80;6.40;;;;;;;1.24;100.00;102119.59;4895176;29;20040;-88
2023/04/27 04:52:38;;;;;;;14.68;6.10;;;;;;;1.20;100.00;102108.41;4909338;29;20114;-88
2023/04/27 04:55:04;;;;;;;14.02;5.68;;;;;;;1.27;100.00;102106.94;4890212;29;20028;-88
2023/04/27 04:57:30;;;;;;;15.43;6.10;;;;;;;1.32;100.00;102111.38;4910670;29;20036;-88
2023/04/27 04:59:55;;;;;;;14.25;6.18;;;;;;;1.33;100.00;102112.25;4909122;29;20033;-88
2023/04/27 05:02:21;;;;;;;11.93;5.82;;;;;;;1.47;100.00;102122.13;4907574;29;20442;-88
2023/04/27 05:04:46;;;;;;;13.57;5.78;;;;;;;1.42;100.00;102107.47;4912590;29;20063;-88
2023/04/27 05:07:12;;;;;;;14.43;6.35;;;;;;;1.47;100.00;102111.91;4912792;29;20023;-88
2023/04/27 05:09:37;;;;;;;16.67;6.40;;;;;;;1.46;100.00;102099.94;4913497;29;20032;-89
2023/04/27 05:12:03;;;;;;;16.45;6.75;;;;;;;1.49;100.00;102094.09;4914831;29;20033;-87
2023/04/27 05:14:29;;;;;;;14.88;6.45;;;;;;;1.62;100.00;102106.44;4909620;29;20043;-88
2023/04/27 05:16:54;;;;;;;14.02;6.10;;;;;;;1.79;100.00;102127.44;4912679;29;20051;-88
2023/04/27 05:19:20;;;;;;;15.40;6.70;;;;;;;1.88;100.00;102125.19;4894371;29;20064;-88
2023/04/27 05:21:45;;;;;;;13.85;6.55;;;;;;;1.92;100.00;102122.75;4913708;29;20923;-88
2023/04/27 05:24:11;;;;;;;16.60;7.13;;;;;;;2.01;100.00;102126.44;4911792;29;20084;-88
2023/04/27 05:26:37;;;;;;;16.05;6.72;;;;;;;2.06;100.00;102114.66;4914313;29;20032;-88
2023/04/27 05:29:03;;;;;;;13.45;6.60;;;;;;;2.14;100.00;102119.19;4897242;29;20036;-88
2023/04/27 05:31:28;;;;;;;17.55;7.03;;;;;;;2.18;100.00;102113.38;4913845;29;20635;-88
2023/04/27 05:33:54;;;;;;;17.45;7.07;;;;;;;2.37;100.00;102131.00;4895710;29;20087;-88
2023/04/27 05:36:19;;;;;;;19.50;7.85;;;;;;;2.48;100.00;102131.31;4909031;29;20106;-88
2023/04/27 05:38:44;;;;;;;19.77;7.88;;;;;;;2.51;100.00;102118.63;4910176;29;20172;-87
2023/04/27 05:41:10;;;;;;;15.82;7.38;;;;;;;2.66;100.00;102123.34;4889499;29;20035;-88
2023/04/27 05:43:37;;;;;;;16.90;7.40;;;;;;;2.80;100.00;102129.69;4911732;29;20036;-88
2023/04/27 05:46:03;;;;;;;22.73;7.05;;;;;;;2.86;100.00;102117.09;4909937;29;20175;-88
2023/04/27 05:48:29;;;;;;;18.27;7.65;;;;;;;3.01;100.00;102124.31;4906898;29;20590;-88
2023/04/27 05:51:03;;;;;;;16.02;7.15;;;;;;;3.07;100.00;102121.94;4909460;29;20039;-87
2023/04/27 05:53:29;;;;;;;18.92;7.57;;;;;;;3.15;100.00;102120.41;4892644;29;20587;-87
2023/04/27 05:55:57;;;;;;;19.05;7.65;;;;;;;3.14;100.00;102104.19;4908005;29;20056;-88
2023/04/27 05:58:23;;;;;;;17.42;7.68;;;;;;;3.32;100.00;102118.31;4909993;29;20111;-87
2023/04/27 06:00:49;;;;;;;16.10;7.28;;;;;;;3.41;100.00;102109.16;4893136;29;20111;-87
2023/04/27 06:03:14;;;;;;;17.90;7.53;;;;;;;3.67;100.00;102129.47;4909051;29;20047;-88
2023/04/27 06:05:40;;;;;;;18.10;7.93;;;;;;;3.71;100.00;102111.63;4910893;29;20111;-87
2023/04/27 06:08:05;;;;;;;16.10;7.38;;;;;;;3.89;100.00;102124.06;4893693;29;20031;-88
2023/04/27 06:10:31;;;;;;;17.38;7.22;;;;;;;4.00;100.00;102124.31;4911683;29;20032;-87
2023/04/27 06:12:56;;;;;;;15.25;7.28;;;;;;;4.13;100.00;102126.31;4910322;29;20043;-89
2023/04/27 06:15:22;;;;;;;18.60;7.47;;;;;;;4.38;100.00;102115.78;4913229;29;20024;-88
2023/04/27 06:17:47;;;;;;;14.57;7.00;;;;;;;4.87;100.00;102109.09;4913649;29;20354;-89
2023/04/27 06:20:13;;;;;;;17.42;6.95;;;;;;;5.26;100.00;102107.28;4914181;29;20605;-88
2023/04/27 06:22:38;;;;;;;16.70;6.97;;;;;;;5.30;100.00;102106.50;4912135;29;20039;-87
2023/04/27 06:25:05;;;;;;;13.65;6.85;;;;;;;5.33;99.29;102116.84;4911348;29;20038;-87
2023/04/27 06:27:30;;;;;;;14.98;6.45;;;;;;;5.40;96.62;102128.09;4910907;29;20509;-87
2023/04/27 06:29:57;;;;;;;12.23;5.82;;;;;;;5.36;93.65;102121.19;4891773;29;20064;-88
2023/04/27 06:32:22;;;;;;;16.20;5.90;;;;;;;5.46;95.63;102123.06;4913830;29;20032;-89
2023/04/27 06:34:48;;;;;;;11.43;5.68;;;;;;;5.48;95.02;102113.66;4892466;29;20032;-87
2023/04/27 06:37:16;;;;;;;13.50;6.00;;;;;;;5.73;94.55;102123.53;4887107;29;21686;-87
2023/04/27 06:39:45;;;;;;;13.15;6.00;;;;;;;6.04;95.73;102129.22;4907362;29;20158;-87
2023/04/27 06:42:10;;;;;;;15.02;6.07;;;;;;;6.73;98.91;102124.19;4897526;29;20124;-87
2023/04/27 06:44:36;;;;;;;16.17;6.30;;;;;;;7.49;98.97;102120.75;4905680;29;20032;-87
2023/04/27 06:47:02;;;;;;;13.73;5.68;;;;;;;7.99;95.33;102117.69;4911434;29;20523;-87
2023/04/27 06:49:27;;;;;;;14.40;6.30;;;;;;;8.01;86.80;102104.81;4891370;29;20123;-87
2023/04/27 06:51:53;;;;;;;8.93;4.90;;;;;;;8.16;87.08;102112.66;4894374;29;20032;-88
2023/04/27 06:54:18;;;;;;;13.10;5.15;;;;;;;8.24;85.21;102105.84;4911042;29;20476;-87
2023/04/27 06:56:44;;;;;;;10.10;4.78;;;;;;;8.47;82.45;102112.03;4907361;29;20068;-88
2023/04/27 06:59:10;;;;;;;10.18;4.50;;;;;;;8.79;81.85;102109.59;4912039;29;20440;-88
2023/04/27 07:01:36;;;;;;;8.55;4.25;;;;;;;9.04;77.23;102090.72;4896023;29;20054;-88
2023/04/27 07:04:06;;;;;;;10.57;4.07;;;;;;;9.27;73.99;102100.25;4911958;29;20059;-87
2023/04/27 07:06:32;;;;;;;7.63;4.63;;;;;;;9.64;75.62;102103.72;4910465;29;20100;-88
2023/04/27 07:09:00;;;;;;;8.75;4.35;;;;;;;9.86;73.77;102095.09;4895488;29;20233;-88
2023/04/27 07:11:26;;;;;;;7.70;4.60;;;;;;;9.97;71.75;102095.09;4911044;29;20145;-88
2023/04/27 07:13:51;;;;;;;11.98;4.57;;;;;;;10.23;69.91;102114.09;4892161;29;20099;-88
2023/04/27 07:16:18;;;;;;;8.40;4.22;;;;;;;10.50;75.46;102098.47;4906743;29;21613;-87
2023/04/27 07:18:43;;;;;;;10.40;4.68;;;;;;;10.85;67.15;102108.69;4907025;29;20118;-88
2023/04/27 07:21:09;;;;;;;11.00;4.60;;;;;;;10.98;70.31;102094.81;4911931;29;20127;-88
2023/04/27 07:23:35;;;;;;;9.68;4.65;;;;;;;11.24;70.32;102109.38;4895111;29;20157;-88
2023/04/27 07:26:03;;;;;;;11.82;4.88;;;;;;;11.33;68.92;102114.47;4896503;29;20085;-88
2023/04/27 07:28:29;;;;;;;9.18;4.82;;;;;;;11.47;67.89;102095.34;4895933;29;20040;-89
2023/04/27 07:30:57;;;;;;;9.60;5.40;;;;;;;11.45;62.92;102097.13;4894042;29;20032;-88
2023/04/27 07:33:22;;;;;;;8.68;4.63;;;;;;;11.46;66.50;102109.19;4913937;29;20474;-88
2023/04/27 07:35:50;;;;;;;10.93;5.47;;;;;;;11.76;63.62;102115.94;4914582;29;20582;-88
2023/04/27 07:38:18;;;;;;;12.45;5.38;;;;;;;11.85;59.82;102110.69;4907376;29;20123;-89
2023/04/27 07:40:44;;;;;;;11.68;5.57;;;;;;;11.73;62.02;102087.38;4890433;29;20035;-89
2023/04/27 07:43:09;;;;;;;10.50;5.35;;;;;;;11.95;61.09;102107.97;4911634;29;20028;-88
2023/04/27 07:45:37;;;;;;;11.20;5.40;;;;;;;12.19;65.76;102103.44;4913320;29;20098;-88
2023/04/27 07:48:03;;;;;;;13.20;5.60;;;;;;;12.37;59.69;102104.97;4897807;29;20024;-88
2023/04/27 07:50:30;;;;;;;11.27;5.28;;;;;;;13.07;64.48;102104.09;4905617;29;20036;-88
2023/04/27 07:52:59;;;;;;;8.63;5.13;;;;;;;13.47;54.09;102109.63;4892840;29;20035;-89
2023/04/27 07:55:28;;;;;;;11.13;5.53;;;;;;;13.91;59.30;102092.41;4912670;29;20040;-88
2023/04/27 07:57:55;;;;;;;9.90;5.30;;;;;;;14.31;53.41;102097.75;4911585;29;20087;-88
2023/04/27 08:00:21;;;;;;;10.57;5.30;;;;;;;14.41;53.34;102081.91;4894879;29;20031;-88
2023/04/27 08:02:47;;;;;;;10.57;5.70;;;;;;;14.81;55.64;102092.38;4915106;29;20047;-88
2023/04/27 08:05:13;;;;;;;10.13;5.38;;;;;;;15.12;56.09;102078.69;4915782;29;20031;-89
2023/04/27 08:07:41;;;;;;;12.60;5.57;;;;;;;15.34;52.65;102093.81;4915980;29;20134;-88
2023/04/27 08:10:07;;;;;;;13.85;5.57;;;;;;;14.98;51.01;102087.69;4913250;29;21280;-89
2023/04/27 08:12:33;;;;;;;9.30;5.07;;;;;;;15.14;50.78;102093.44;4899788;29;20024;-88
2023/04/27 08:15:02;;;;;;;12.00;4.85;;;;;;;15.21;50.50;102108.06;4901944;29;20091;-88
2023/04/27 08:17:27;;;;;;;10.25;4.85;;;;;;;15.33;54.61;102080.78;4915047;29;20028;-89
2023/04/27 08:19:52;;;;;;;9.35;5.10;;;;;;;15.68;51.94;102101.75;4916176;29;20028;-89
2023/04/27 08:22:18;;;;;;;10.80;4.97;;;;;;;16.06;50.26;102095.53;4917230;29;20040;-89
2023/04/27 08:24:43;;;;;;;9.43;5.00;;;;;;;16.30;52.33;102111.47;4916193;29;20471;-89
2023/04/27 08:27:09;;;;;;;9.38;5.15;;;;;;;16.13;49.05;102094.47;4910631;29;20729;-91
2023/04/27 08:29:35;;;;;;;11.40;5.55;;;;;;;15.94;49.47;102093.25;4894221;29;20036;-91
2023/04/27 08:32:02;;;;;;;12.80;5.18;;;;;;;15.66;50.49;102084.38;4900062;29;20087;-90
2023/04/27 08:34:28;;;;;;;11.27;5.05;;;;;;;15.62;50.99;102075.75;4896289;29;20082;-89
2023/04/27 08:36:53;;;;;;;9.98;4.90;;;;;;;15.61;49.98;102067.97;4915163;29;20024;-89
2023/04/27 08:39:19;;;;;;;8.88;5.00;;;;;;;15.51;50.15;102067.28;4917036;29;20027;-88
2023/04/27 08:41:45;;;;;;;10.75;5.43;;;;;;;15.61;47.98;102054.88;4917185;29;20032;-88
2023/04/27 08:44:11;;;;;;;9.25;4.63;;;;;;;15.60;45.94;102081.91;4900153;29;20019;-88
2023/04/27 08:46:37;;;;;;;10.02;5.10;;;;;;;15.52;49.53;102047.22;4916209;29;20039;-89
2023/04/27 08:49:03;;;;;;;9.75;4.97;;;;;;;15.57;48.85;102074.13;4916133;29;20423;-88
2023/04/27 08:51:31;;;;;;;8.75;5.10;;;;;;;15.21;47.62;102058.44;4917256;29;20119;-89
2023/04/27 08:53:57;;;;;;;12.40;5.25;;;;;;;15.20;49.47;102084.59;4917797;29;20035;-88
2023/04/27 08:56:25;;;;;;;9.27;5.10;;;;;;;15.10;51.05;102070.00;4899589;29;20031;-89
2023/04/27 08:58:51;;;;;;;10.82;5.40;;;;;;;14.88;45.99;102062.66;4916469;29;20036;-88
2023/04/27 09:01:17;;;;;;;10.63;5.47;;;;;;;14.73;47.09;102072.59;4917078;29;20028;-89
2023/04/27 09:03:45;;;;;;;10.80;5.38;;;;;;;14.59;49.03;102055.47;4914662;29;20560;-89
2023/04/27 09:06:11;;;;;;;7.97;5.07;;;;;;;14.51;48.55;102059.13;4900811;29;20036;-89
2023/04/27 09:08:54;;;;;;;13.98;5.45;;;;;;;14.56;50.47;102075.53;4916822;29;20037;-88
2023/04/27 09:11:34;;;;;;;9.07;4.90;;;;;;;14.56;48.21;102075.53;4915815;29;20043;-89
2023/04/27 09:14:17;;;;;;;8.45;4.80;;;;;;;14.46;48.64;102068.78;4899553;29;20032;-89
2023/04/27 09:16:43;;;;;;;11.57;5.00;;;;;;;14.51;45.86;102061.72;4914762;29;20028;-88
2023/04/27 09:19:08;;;;;;;10.15;4.97;;;;;;;14.36;46.94;102064.59;4915882;29;20149;-89
2023/04/27 09:21:34;;;;;;;8.57;5.03;;;;;;;14.28;48.11;102069.09;4916641;29;20027;-88
2023/04/27 09:24:11;;;;;;;11.10;5.20;;;;;;;14.28;51.18;102076.94;4898715;29;20016;-89
2023/04/27 09:26:36;;;;;;;9.38;4.68;;;;;;;14.26;48.01;102086.56;4916371;29;20396;-88
2023/04/27 09:29:02;;;;;;;9.20;4.80;;;;;;;14.12;46.88;102069.41;4914627;29;20473;-88
2023/04/27 09:31:31;;;;;;;9.40;4.57;;;;;;;14.03;47.11;102080.00;4899598;29;20040;-89
2023/04/27 09:33:57;;;;;;;8.10;4.82;;;;;;;13.72;46.49;102076.19;4914924;29;20638;-88
2023/04/27 09:36:24;;;;;;;10.50;4.70;;;;;;;13.54;46.44;102064.34;4915107;29;20031;-88
2023/04/27 09:38:51;;;;;;;10.10;4.95;;;;;;;13.57;46.04;102073.88;4915432;29;20043;-89
2023/04/27 09:41:16;;;;;;;10.10;5.03;;;;;;;13.39;47.98;102061.97;4893672;29;20426;-89
2023/04/27 09:43:46;;;;;;;10.60;5.18;;;;;;;13.25;46.29;102048.31;4899002;29;20495;-89
2023/04/27 09:46:15;;;;;;;9.35;5.05;;;;;;;13.36;47.96;102062.91;4915215;29;20055;-89
2023/04/27 09:48:41;;;;;;;8.10;4.90;;;;;;;13.41;49.06;102063.69;4915019;29;20068;-88
2023/04/27 09:51:07;;;;;;;8.32;5.07;;;;;;;13.38;47.63;102057.66;4915623;29;20027;-87
2023/04/27 09:53:37;;;;;;;9.30;4.90;;;;;;;13.51;48.98;102060.94;4912972;29;20374;-88
2023/04/27 09:56:06;;;;;;;9.82;5.00;;;;;;;13.50;49.57;102064.44;4912409;29;20134;-89
2023/04/27 09:58:32;;;;;;;10.25;5.28;;;;;;;13.34;47.51;102059.47;4912799;29;20036;-88
2023/04/27 10:01:20;;;;;;;9.32;5.25;;;;;;;13.11;48.54;102043.28;4915913;29;20123;-88
2023/04/27 10:04:13;;;;;;;12.45;4.63;;;;;;;13.22;47.55;102067.47;4896092;29;20052;-89
2023/04/27 10:07:08;;;;;;;8.98;4.70;;;;;;;13.33;50.60;102049.06;4914319;29;20039;-89
2023/04/27 10:09:40;;;;;;;8.52;4.90;;;;;;;13.34;46.05;102048.19;4898308;29;20040;-88
2023/04/27 10:12:15;;;;;;;8.82;4.97;;;;;;;13.25;46.85;102041.38;4914631;29;20028;-89
2023/04/27 10:14:58;;;;;;;8.68;5.07;;;;;;;13.27;46.61;102041.34;4914044;29;20031;-88
2023/04/27 10:17:34;;;;;;;12.50;5.32;;;;;;;13.20;49.41;102043.19;4911629;29;20031;-89
2023/04/27 10:20:08;;;;;;;9.63;4.95;;;;;;;13.29;47.62;102036.97;4912430;29;20044;-88
2023/04/27 10:22:49;;;;;;;10.48;5.05;;;;;;;13.16;46.04;102035.47;4913695;29;20024;-88
2023/04/27 10:25:19;;;;;;;7.93;5.00;;;;;;;13.24;48.22;102051.78;4900217;29;20115;-88
2023/04/27 10:27:53;;;;;;;9.95;5.03;;;;;;;13.13;45.41;102054.56;4897723;29;20091;-88
2023/04/27 10:30:24;;;;;;;8.63;5.30;;;;;;;12.99;45.77;102056.47;4894882;29;20167;-88
2023/04/27 10:33:07;;;;;;;8.23;4.75;;;;;;;12.78;48.29;102033.34;4914328;29;20121;-88
2023/04/27 10:35:36;;;;;;;9.75;5.38;;;;;;;12.78;44.39;102044.63;4897745;29;20036;-88
2023/04/27 10:38:08;;;;;;;8.68;5.40;;;;;;;12.65;43.77;102067.34;4914654;29;20066;-89
2023/04/27 10:40:37;;;;;;;9.35;5.05;;;;;;;12.45;45.42;102058.94;4912644;29;20058;-88
2023/04/27 10:43:15;;;;;;;9.18;5.00;;;;;;;12.30;46.88;102050.44;4896572;29;20032;-88
2023/04/27 10:45:41;;;;;;;7.53;4.93;;;;;;;12.14;45.95;102028.97;4911916;29;20050;-88
2023/04/27 10:48:11;;;;;;;10.55;5.38;;;;;;;12.33;48.96;102053.00;4915363;29;20511;-88
2023/04/27 10:50:37;;;;;;;11.00;5.32;;;;;;;12.43;45.16;102058.06;4914128;29;20436;-88
2023/04/27 10:53:04;;;;;;;9.27;5.55;;;;;;;12.50;46.25;102046.72;4908488;29;20047;-88
2023/04/27 10:55:30;;;;;;;9.63;5.50;;;;;;;12.48;47.41;102027.69;4912429;29;20031;-88
2023/04/27 10:57:57;;;;;;;8.43;5.45;;;;;;;12.57;45.66;102027.56;4914709;29;20031;-89
2023/04/27 11:00:44;;;;;;;8.30;5.20;;;;;;;12.75;45.29;102036.03;4895730;29;20027;-89
2023/04/27 11:03:11;;;;;;;10.25;5.50;;;;;;;12.73;45.44;102037.78;4896955;29;20314;-89
2023/04/27 11:05:40;;;;;;;10.82;5.90;;;;;;;12.66;44.52;102031.78;4910886;29;20047;-89
2023/04/27 11:08:11;;;;;;;10.73;5.47;;;;;;;12.59;46.03;102011.94;4914888;29;20043;-89
2023/04/27 11:10:43;;;;;;;10.25;5.63;;;;;;;12.62;48.92;102002.34;4899317;29;20520;-88
2023/04/27 11:13:10;;;;;;;10.50;5.30;;;;;;;12.77;47.61;102000.41;4910864;29;20533;-88
2023/04/27 11:15:49;;;;;;;10.80;5.53;;;;;;;13.07;48.10;102011.25;4915351;29;20033;-88
2023/04/27 11:18:16;;;;;;;12.27;5.55;;;;;;;13.09;48.47;101995.59;4897717;29;20063;-88
2023/04/27 11:20:48;;;;;;;9.05;5.32;;;;;;;13.19;49.58;102012.81;4913519;29;20071;-88